sensor_id;sensor_type;location;lat;lon;timestamp;temperature;humidity
435;DHT22;204;48.942;9.256;2023-04-15T00:00:15;5.20;1.00
435;DHT22;204;48.942;9.256;2023-04-15T00:02:41;5.20;1.00
435;DHT22;204;48.942;9.256;2023-04-15T00:05:07;5.20;1.00
435;DHT22;204;48.942;9.256;2023-04-15T00:07:33;5.20;1.00
435;DHT22;204;48.942;9.256;2023-04-15T00:09:59;5.20;1.00
435;DHT22;204;48.942;9.256;2023-04-15T00:12:25;5.10;1.00
435;DHT22;204;48.942;9.256;2023-04-15T00:14:51;5.10;1.00
435;DHT22;204;48.942;9.256;2023-04-15T00:17:17;5.10;1.00
435;DHT22;204;48.942;9.256;2023-04-15T00:19:43;5.10;1.00
435;DHT22;204;48.942;9.256;2023-04-15T00:22:10;5.10;1.00
435;DHT22;204;48.942;9.256;2023-04-15T00:24:36;5.00;1.00
435;DHT22;204;48.942;9.256;2023-04-15T00:27:02;4.90;1.00
435;DHT22;204;48.942;9.256;2023-04-15T00:29:28;4.90;1.00
435;DHT22;204;48.942;9.256;2023-04-15T00:31:55;4.90;1.00
435;DHT22;204;48.942;9.256;2023-04-15T00:34:21;4.90;1.00
435;DHT22;204;48.942;9.256;2023-04-15T00:36:47;4.90;1.00
435;DHT22;204;48.942;9.256;2023-04-15T00:39:13;4.80;1.00
435;DHT22;204;48.942;9.256;2023-04-15T00:41:40;4.80;1.00
435;DHT22;204;48.942;9.256;2023-04-15T00:44:07;4.80;1.00
435;DHT22;204;48.942;9.256;2023-04-15T00:46:35;4.80;1.00
435;DHT22;204;48.942;9.256;2023-04-15T00:49:03;4.80;1.00
435;DHT22;204;48.942;9.256;2023-04-15T00:51:29;4.80;1.00
435;DHT22;204;48.942;9.256;2023-04-15T00:53:58;4.80;1.00
435;DHT22;204;48.942;9.256;2023-04-15T00:56:24;4.80;1.00
435;DHT22;204;48.942;9.256;2023-04-15T00:58:51;4.70;1.00
435;DHT22;204;48.942;9.256;2023-04-15T01:01:21;4.60;1.00
435;DHT22;204;48.942;9.256;2023-04-15T01:03:50;4.60;1.00
435;DHT22;204;48.942;9.256;2023-04-15T01:06:16;4.60;1.00
435;DHT22;204;48.942;9.256;2023-04-15T01:08:43;4.60;1.00
435;DHT22;204;48.942;9.256;2023-04-15T01:11:09;4.50;1.00
435;DHT22;204;48.942;9.256;2023-04-15T01:13:37;4.50;1.00
435;DHT22;204;48.942;9.256;2023-04-15T01:16:02;4.50;1.00
435;DHT22;204;48.942;9.256;2023-04-15T01:18:29;4.50;1.00
435;DHT22;204;48.942;9.256;2023-04-15T01:20:55;4.40;1.00
435;DHT22;204;48.942;9.256;2023-04-15T01:23:21;4.40;1.00
435;DHT22;204;48.942;9.256;2023-04-15T01:25:49;4.40;1.00
435;DHT22;204;48.942;9.256;2023-04-15T01:28:15;4.30;1.00
435;DHT22;204;48.942;9.256;2023-04-15T01:30:41;4.30;1.00
435;DHT22;204;48.942;9.256;2023-04-15T01:33:07;4.30;1.00
435;DHT22;204;48.942;9.256;2023-04-15T01:35:32;4.20;1.00
435;DHT22;204;48.942;9.256;2023-04-15T01:38:04;4.30;1.00
435;DHT22;204;48.942;9.256;2023-04-15T01:40:31;4.30;1.00
435;DHT22;204;48.942;9.256;2023-04-15T01:42:56;4.20;1.00
435;DHT22;204;48.942;9.256;2023-04-15T01:45:22;4.20;1.00
435;DHT22;204;48.942;9.256;2023-04-15T01:47:47;4.20;1.00
435;DHT22;204;48.942;9.256;2023-04-15T01:50:13;4.10;1.00
435;DHT22;204;48.942;9.256;2023-04-15T01:52:39;4.10;1.00
435;DHT22;204;48.942;9.256;2023-04-15T01:55:06;4.10;1.00
435;DHT22;204;48.942;9.256;2023-04-15T01:57:33;4.10;1.00
435;DHT22;204;48.942;9.256;2023-04-15T01:59:58;4.10;1.00
435;DHT22;204;48.942;9.256;2023-04-15T02:02:24;4.10;1.00
435;DHT22;204;48.942;9.256;2023-04-15T02:04:50;4.00;1.00
435;DHT22;204;48.942;9.256;2023-04-15T02:07:15;4.00;1.00
435;DHT22;204;48.942;9.256;2023-04-15T02:09:41;4.00;1.00
435;DHT22;204;48.942;9.256;2023-04-15T02:12:08;4.00;1.00
435;DHT22;204;48.942;9.256;2023-04-15T02:14:34;4.00;1.00
435;DHT22;204;48.942;9.256;2023-04-15T02:16:59;4.00;1.00
435;DHT22;204;48.942;9.256;2023-04-15T02:19:32;3.90;1.00
435;DHT22;204;48.942;9.256;2023-04-15T02:21:57;3.90;1.00
435;DHT22;204;48.942;9.256;2023-04-15T02:24:24;3.90;1.00
435;DHT22;204;48.942;9.256;2023-04-15T02:26:49;3.90;1.00
435;DHT22;204;48.942;9.256;2023-04-15T02:29:15;3.80;1.00
435;DHT22;204;48.942;9.256;2023-04-15T02:31:40;3.80;1.00
435;DHT22;204;48.942;9.256;2023-04-15T02:34:06;3.80;1.00
435;DHT22;204;48.942;9.256;2023-04-15T02:36:32;3.70;1.00
435;DHT22;204;48.942;9.256;2023-04-15T02:38:59;3.60;1.00
435;DHT22;204;48.942;9.256;2023-04-15T02:41:25;3.60;1.00
435;DHT22;204;48.942;9.256;2023-04-15T02:43:53;3.60;1.00
435;DHT22;204;48.942;9.256;2023-04-15T02:46:18;3.60;1.00
435;DHT22;204;48.942;9.256;2023-04-15T02:48:44;3.50;1.00
435;DHT22;204;48.942;9.256;2023-04-15T02:51:15;3.50;1.00
435;DHT22;204;48.942;9.256;2023-04-15T02:53:41;3.50;1.00
435;DHT22;204;48.942;9.256;2023-04-15T02:56:07;3.50;1.00
435;DHT22;204;48.942;9.256;2023-04-15T02:58:34;3.50;1.00
435;DHT22;204;48.942;9.256;2023-04-15T03:00:59;3.50;1.00
435;DHT22;204;48.942;9.256;2023-04-15T03:03:25;3.50;1.00
435;DHT22;204;48.942;9.256;2023-04-15T03:05:52;3.50;1.00
435;DHT22;204;48.942;9.256;2023-04-15T03:08:18;3.50;1.00
435;DHT22;204;48.942;9.256;2023-04-15T03:10:43;3.50;1.00
435;DHT22;204;48.942;9.256;2023-04-15T03:13:09;3.50;1.00
435;DHT22;204;48.942;9.256;2023-04-15T03:15:35;3.60;1.00
435;DHT22;204;48.942;9.256;2023-04-15T03:18:00;3.60;1.00
435;DHT22;204;48.942;9.256;2023-04-15T03:20:26;3.70;1.00
435;DHT22;204;48.942;9.256;2023-04-15T03:22:51;3.70;1.00
435;DHT22;204;48.942;9.256;2023-04-15T03:25:17;3.80;1.00
435;DHT22;204;48.942;9.256;2023-04-15T03:27:43;3.90;1.00
435;DHT22;204;48.942;9.256;2023-04-15T03:30:09;3.80;1.00
435;DHT22;204;48.942;9.256;2023-04-15T03:32:34;3.80;1.00
435;DHT22;204;48.942;9.256;2023-04-15T03:35:03;3.80;1.00
435;DHT22;204;48.942;9.256;2023-04-15T03:37:31;3.80;1.00
435;DHT22;204;48.942;9.256;2023-04-15T03:39:57;3.70;1.00
435;DHT22;204;48.942;9.256;2023-04-15T03:42:22;3.70;1.00
435;DHT22;204;48.942;9.256;2023-04-15T03:44:48;3.70;1.00
435;DHT22;204;48.942;9.256;2023-04-15T03:47:14;3.80;1.00
435;DHT22;204;48.942;9.256;2023-04-15T03:49:40;3.80;1.00
435;DHT22;204;48.942;9.256;2023-04-15T03:52:05;3.80;1.00
435;DHT22;204;48.942;9.256;2023-04-15T03:54:31;3.80;1.00
435;DHT22;204;48.942;9.256;2023-04-15T03:56:56;3.80;1.00
435;DHT22;204;48.942;9.256;2023-04-15T03:59:22;3.80;1.00
435;DHT22;204;48.942;9.256;2023-04-15T04:01:48;3.80;1.00
435;DHT22;204;48.942;9.256;2023-04-15T04:04:14;3.80;1.00
435;DHT22;204;48.942;9.256;2023-04-15T04:06:39;3.80;1.00
435;DHT22;204;48.942;9.256;2023-04-15T04:09:05;3.80;1.00
435;DHT22;204;48.942;9.256;2023-04-15T04:11:31;3.80;1.00
435;DHT22;204;48.942;9.256;2023-04-15T04:13:57;3.80;1.00
435;DHT22;204;48.942;9.256;2023-04-15T04:16:23;3.80;1.00
435;DHT22;204;48.942;9.256;2023-04-15T04:18:48;3.80;1.00
435;DHT22;204;48.942;9.256;2023-04-15T04:21:14;3.80;1.00
435;DHT22;204;48.942;9.256;2023-04-15T04:23:40;3.80;1.00
435;DHT22;204;48.942;9.256;2023-04-15T04:26:06;3.70;1.00
435;DHT22;204;48.942;9.256;2023-04-15T04:28:31;3.70;1.00
435;DHT22;204;48.942;9.256;2023-04-15T04:30:57;3.60;1.00
435;DHT22;204;48.942;9.256;2023-04-15T04:33:23;3.60;1.00
435;DHT22;204;48.942;9.256;2023-04-15T04:35:49;3.60;1.00
435;DHT22;204;48.942;9.256;2023-04-15T04:38:14;3.60;1.00
435;DHT22;204;48.942;9.256;2023-04-15T04:40:40;3.50;1.00
435;DHT22;204;48.942;9.256;2023-04-15T04:43:06;3.50;1.00
435;DHT22;204;48.942;9.256;2023-04-15T04:45:31;3.50;1.00
435;DHT22;204;48.942;9.256;2023-04-15T04:47:57;3.50;1.00
435;DHT22;204;48.942;9.256;2023-04-15T04:50:22;3.50;1.00
435;DHT22;204;48.942;9.256;2023-04-15T04:52:48;3.50;1.00
435;DHT22;204;48.942;9.256;2023-04-15T04:55:14;3.50;1.00
435;DHT22;204;48.942;9.256;2023-04-15T04:57:39;3.40;1.00
435;DHT22;204;48.942;9.256;2023-04-15T05:00:06;3.50;1.00
435;DHT22;204;48.942;9.256;2023-04-15T05:02:33;3.50;1.00
435;DHT22;204;48.942;9.256;2023-04-15T05:04:59;3.50;1.00
435;DHT22;204;48.942;9.256;2023-04-15T05:07:24;3.50;1.00
435;DHT22;204;48.942;9.256;2023-04-15T05:09:50;3.50;1.00
435;DHT22;204;48.942;9.256;2023-04-15T05:12:16;3.60;1.00
435;DHT22;204;48.942;9.256;2023-04-15T05:14:42;3.60;1.00
435;DHT22;204;48.942;9.256;2023-04-15T05:17:08;3.70;1.00
435;DHT22;204;48.942;9.256;2023-04-15T05:19:34;3.70;1.00
435;DHT22;204;48.942;9.256;2023-04-15T05:22:00;3.70;1.00
435;DHT22;204;48.942;9.256;2023-04-15T05:24:25;3.80;1.00
435;DHT22;204;48.942;9.256;2023-04-15T05:26:51;3.80;1.00
435;DHT22;204;48.942;9.256;2023-04-15T05:29:17;3.80;1.00
435;DHT22;204;48.942;9.256;2023-04-15T05:31:42;3.90;1.00
435;DHT22;204;48.942;9.256;2023-04-15T05:34:08;3.90;1.00
435;DHT22;204;48.942;9.256;2023-04-15T05:36:34;4.00;1.00
435;DHT22;204;48.942;9.256;2023-04-15T05:39:00;4.10;1.00
435;DHT22;204;48.942;9.256;2023-04-15T05:41:26;4.10;1.00
435;DHT22;204;48.942;9.256;2023-04-15T05:43:51;4.20;1.00
435;DHT22;204;48.942;9.256;2023-04-15T05:46:17;4.20;1.00
435;DHT22;204;48.942;9.256;2023-04-15T05:48:42;4.30;1.00
435;DHT22;204;48.942;9.256;2023-04-15T05:51:08;4.40;1.00
435;DHT22;204;48.942;9.256;2023-04-15T05:53:34;4.50;1.00
435;DHT22;204;48.942;9.256;2023-04-15T05:56:00;4.60;1.00
435;DHT22;204;48.942;9.256;2023-04-15T05:58:25;4.70;1.00
435;DHT22;204;48.942;9.256;2023-04-15T06:00:51;4.80;1.00
435;DHT22;204;48.942;9.256;2023-04-15T06:03:17;4.90;1.00
435;DHT22;204;48.942;9.256;2023-04-15T06:05:43;5.00;1.00
435;DHT22;204;48.942;9.256;2023-04-15T06:08:09;5.20;1.00
435;DHT22;204;48.942;9.256;2023-04-15T06:10:35;5.40;1.00
435;DHT22;204;48.942;9.256;2023-04-15T06:13:02;5.60;1.00
435;DHT22;204;48.942;9.256;2023-04-15T06:15:31;5.80;1.00
435;DHT22;204;48.942;9.256;2023-04-15T06:17:56;6.00;1.00
435;DHT22;204;48.942;9.256;2023-04-15T06:20:22;6.20;1.00
435;DHT22;204;48.942;9.256;2023-04-15T06:22:48;6.40;1.00
435;DHT22;204;48.942;9.256;2023-04-15T06:25:14;6.60;1.00
435;DHT22;204;48.942;9.256;2023-04-15T06:27:39;6.90;1.00
435;DHT22;204;48.942;9.256;2023-04-15T06:30:06;7.10;1.00
435;DHT22;204;48.942;9.256;2023-04-15T06:32:32;7.30;1.00
435;DHT22;204;48.942;9.256;2023-04-15T06:34:58;7.50;1.00
435;DHT22;204;48.942;9.256;2023-04-15T06:37:23;7.70;1.00
435;DHT22;204;48.942;9.256;2023-04-15T06:39:49;8.00;1.00
435;DHT22;204;48.942;9.256;2023-04-15T06:42:15;8.10;1.00
435;DHT22;204;48.942;9.256;2023-04-15T06:44:41;8.30;1.00
435;DHT22;204;48.942;9.256;2023-04-15T06:47:06;8.40;1.00
435;DHT22;204;48.942;9.256;2023-04-15T06:49:33;8.60;1.00
435;DHT22;204;48.942;9.256;2023-04-15T06:51:59;8.70;1.00
435;DHT22;204;48.942;9.256;2023-04-15T06:54:25;8.80;1.00
435;DHT22;204;48.942;9.256;2023-04-15T06:56:51;8.90;1.00
435;DHT22;204;48.942;9.256;2023-04-15T06:59:17;9.00;1.00
435;DHT22;204;48.942;9.256;2023-04-15T07:01:43;9.00;1.00
435;DHT22;204;48.942;9.256;2023-04-15T07:04:08;9.20;1.00
435;DHT22;204;48.942;9.256;2023-04-15T07:06:35;9.30;1.00
435;DHT22;204;48.942;9.256;2023-04-15T07:09:01;9.50;1.00
435;DHT22;204;48.942;9.256;2023-04-15T07:11:29;9.60;1.00
435;DHT22;204;48.942;9.256;2023-04-15T07:13:54;9.80;1.00
435;DHT22;204;48.942;9.256;2023-04-15T07:16:20;10.10;1.00
435;DHT22;204;48.942;9.256;2023-04-15T07:18:46;10.30;1.00
435;DHT22;204;48.942;9.256;2023-04-15T07:21:12;10.60;1.00
435;DHT22;204;48.942;9.256;2023-04-15T07:23:37;10.80;1.00
435;DHT22;204;48.942;9.256;2023-04-15T07:26:04;11.20;1.00
435;DHT22;204;48.942;9.256;2023-04-15T07:28:30;11.50;1.00
435;DHT22;204;48.942;9.256;2023-04-15T07:30:56;11.90;1.00
435;DHT22;204;48.942;9.256;2023-04-15T07:33:22;12.20;1.00
435;DHT22;204;48.942;9.256;2023-04-15T07:35:48;12.40;1.00
435;DHT22;204;48.942;9.256;2023-04-15T07:38:14;12.60;1.00
435;DHT22;204;48.942;9.256;2023-04-15T07:40:40;12.80;1.00
435;DHT22;204;48.942;9.256;2023-04-15T07:43:06;12.90;1.00
435;DHT22;204;48.942;9.256;2023-04-15T07:45:33;12.90;1.00
435;DHT22;204;48.942;9.256;2023-04-15T07:48:00;13.00;1.00
435;DHT22;204;48.942;9.256;2023-04-15T07:50:26;13.10;1.00
435;DHT22;204;48.942;9.256;2023-04-15T07:52:51;13.10;1.00
435;DHT22;204;48.942;9.256;2023-04-15T07:55:17;13.20;1.00
435;DHT22;204;48.942;9.256;2023-04-15T07:57:45;13.30;1.00
435;DHT22;204;48.942;9.256;2023-04-15T08:00:12;13.40;1.00
435;DHT22;204;48.942;9.256;2023-04-15T08:02:38;13.60;1.00
435;DHT22;204;48.942;9.256;2023-04-15T08:05:04;13.70;1.00
435;DHT22;204;48.942;9.256;2023-04-15T08:07:30;13.90;1.00
435;DHT22;204;48.942;9.256;2023-04-15T08:09:56;14.00;1.00
435;DHT22;204;48.942;9.256;2023-04-15T08:12:22;14.00;1.00
435;DHT22;204;48.942;9.256;2023-04-15T08:14:51;14.20;1.00
435;DHT22;204;48.942;9.256;2023-04-15T08:17:17;14.20;1.00
435;DHT22;204;48.942;9.256;2023-04-15T08:19:42;14.30;1.00
435;DHT22;204;48.942;9.256;2023-04-15T08:22:09;14.30;1.00
435;DHT22;204;48.942;9.256;2023-04-15T08:24:34;14.20;1.00
435;DHT22;204;48.942;9.256;2023-04-15T08:27:01;14.30;1.00
435;DHT22;204;48.942;9.256;2023-04-15T08:29:29;14.30;1.00
435;DHT22;204;48.942;9.256;2023-04-15T08:31:54;14.30;1.00
435;DHT22;204;48.942;9.256;2023-04-15T08:34:20;14.50;1.00
435;DHT22;204;48.942;9.256;2023-04-15T08:36:45;14.60;1.00
435;DHT22;204;48.942;9.256;2023-04-15T08:39:11;14.60;1.00
435;DHT22;204;48.942;9.256;2023-04-15T08:41:46;14.60;1.00
435;DHT22;204;48.942;9.256;2023-04-15T08:44:13;14.80;1.00
435;DHT22;204;48.942;9.256;2023-04-15T08:46:40;14.90;1.00
435;DHT22;204;48.942;9.256;2023-04-15T08:49:09;15.20;1.00
435;DHT22;204;48.942;9.256;2023-04-15T08:51:36;15.50;1.00
435;DHT22;204;48.942;9.256;2023-04-15T08:54:02;15.70;1.00
435;DHT22;204;48.942;9.256;2023-04-15T08:56:30;15.80;1.00
435;DHT22;204;48.942;9.256;2023-04-15T08:58:57;16.20;1.00
435;DHT22;204;48.942;9.256;2023-04-15T09:01:23;16.40;1.00
435;DHT22;204;48.942;9.256;2023-04-15T09:03:50;16.50;1.00
435;DHT22;204;48.942;9.256;2023-04-15T09:06:16;16.50;1.00
435;DHT22;204;48.942;9.256;2023-04-15T09:08:42;16.70;1.00
435;DHT22;204;48.942;9.256;2023-04-15T09:11:08;17.00;1.00
435;DHT22;204;48.942;9.256;2023-04-15T09:13:33;17.20;1.00
435;DHT22;204;48.942;9.256;2023-04-15T09:16:02;17.40;1.00
435;DHT22;204;48.942;9.256;2023-04-15T09:18:30;17.50;1.00
435;DHT22;204;48.942;9.256;2023-04-15T09:21:06;17.60;1.00
435;DHT22;204;48.942;9.256;2023-04-15T09:23:34;17.50;1.00
435;DHT22;204;48.942;9.256;2023-04-15T09:26:01;17.60;1.00
435;DHT22;204;48.942;9.256;2023-04-15T09:28:27;17.50;1.00
435;DHT22;204;48.942;9.256;2023-04-15T09:30:59;17.40;1.00
435;DHT22;204;48.942;9.256;2023-04-15T09:33:26;17.30;1.00
435;DHT22;204;48.942;9.256;2023-04-15T09:36:03;17.50;1.00
435;DHT22;204;48.942;9.256;2023-04-15T09:38:30;17.50;1.00
435;DHT22;204;48.942;9.256;2023-04-15T09:40:56;17.60;1.00
435;DHT22;204;48.942;9.256;2023-04-15T09:43:28;17.60;1.00
435;DHT22;204;48.942;9.256;2023-04-15T09:46:01;17.80;1.00
435;DHT22;204;48.942;9.256;2023-04-15T09:48:26;17.80;1.00
435;DHT22;204;48.942;9.256;2023-04-15T09:50:57;17.90;1.00
435;DHT22;204;48.942;9.256;2023-04-15T09:53:23;18.00;1.00
435;DHT22;204;48.942;9.256;2023-04-15T09:58:26;18.20;99.90
435;DHT22;204;48.942;9.256;2023-04-15T10:00:53;18.30;99.90
435;DHT22;204;48.942;9.256;2023-04-15T10:03:21;18.30;99.90
435;DHT22;204;48.942;9.256;2023-04-15T10:05:48;18.30;99.90
435;DHT22;204;48.942;9.256;2023-04-15T10:08:17;18.40;99.90
435;DHT22;204;48.942;9.256;2023-04-15T10:10:44;18.20;99.90
435;DHT22;204;48.942;9.256;2023-04-15T10:13:16;18.20;99.90
435;DHT22;204;48.942;9.256;2023-04-15T10:15:44;18.30;99.90
435;DHT22;204;48.942;9.256;2023-04-15T10:18:14;18.30;99.90
435;DHT22;204;48.942;9.256;2023-04-15T10:20:42;18.10;99.90
435;DHT22;204;48.942;9.256;2023-04-15T10:23:09;18.00;99.90
435;DHT22;204;48.942;9.256;2023-04-15T10:25:35;18.00;99.90
435;DHT22;204;48.942;9.256;2023-04-15T10:28:02;18.10;99.90
435;DHT22;204;48.942;9.256;2023-04-15T10:30:27;18.00;99.90
435;DHT22;204;48.942;9.256;2023-04-15T10:32:54;18.00;99.90
435;DHT22;204;48.942;9.256;2023-04-15T10:35:22;18.00;99.90
435;DHT22;204;48.942;9.256;2023-04-15T10:37:47;17.90;99.90
435;DHT22;204;48.942;9.256;2023-04-15T10:42:48;17.80;99.90
435;DHT22;204;48.942;9.256;2023-04-15T10:45:17;18.00;99.90
435;DHT22;204;48.942;9.256;2023-04-15T10:47:43;18.20;99.90
435;DHT22;204;48.942;9.256;2023-04-15T10:50:09;18.40;99.90
435;DHT22;204;48.942;9.256;2023-04-15T10:52:39;18.60;99.90
435;DHT22;204;48.942;9.256;2023-04-15T10:57:41;19.10;99.90
435;DHT22;204;48.942;9.256;2023-04-15T11:03:06;19.30;99.90
435;DHT22;204;48.942;9.256;2023-04-15T11:08:09;19.30;99.90
435;DHT22;204;48.942;9.256;2023-04-15T11:13:03;19.10;99.90
435;DHT22;204;48.942;9.256;2023-04-15T11:15:40;18.80;99.90
435;DHT22;204;48.942;9.256;2023-04-15T11:18:22;18.80;99.90
435;DHT22;204;48.942;9.256;2023-04-15T11:20:54;18.80;99.90
435;DHT22;204;48.942;9.256;2023-04-15T11:23:42;18.50;99.90
435;DHT22;204;48.942;9.256;2023-04-15T11:26:11;18.30;99.90
435;DHT22;204;48.942;9.256;2023-04-15T11:28:38;18.10;99.90
435;DHT22;204;48.942;9.256;2023-04-15T11:31:12;18.00;99.90
435;DHT22;204;48.942;9.256;2023-04-15T11:34:04;17.80;99.90
435;DHT22;204;48.942;9.256;2023-04-15T11:36:30;17.90;99.90
435;DHT22;204;48.942;9.256;2023-04-15T11:38:58;18.00;99.90
435;DHT22;204;48.942;9.256;2023-04-15T11:41:24;17.90;99.90
435;DHT22;204;48.942;9.256;2023-04-15T11:43:50;17.90;99.90
435;DHT22;204;48.942;9.256;2023-04-15T11:46:17;18.00;99.90
435;DHT22;204;48.942;9.256;2023-04-15T11:48:43;18.00;99.90
435;DHT22;204;48.942;9.256;2023-04-15T11:51:10;18.20;99.90
435;DHT22;204;48.942;9.256;2023-04-15T11:53:49;18.10;99.90
435;DHT22;204;48.942;9.256;2023-04-15T11:56:21;18.40;99.90
435;DHT22;204;48.942;9.256;2023-04-15T11:58:47;18.50;99.90
435;DHT22;204;48.942;9.256;2023-04-15T12:01:15;18.50;99.90
435;DHT22;204;48.942;9.256;2023-04-15T12:03:49;18.30;99.90
435;DHT22;204;48.942;9.256;2023-04-15T12:06:22;17.70;99.90
435;DHT22;204;48.942;9.256;2023-04-15T12:16:51;15.80;99.90
435;DHT22;204;48.942;9.256;2023-04-15T12:19:40;15.50;99.90
435;DHT22;204;48.942;9.256;2023-04-15T12:22:15;15.30;99.90
435;DHT22;204;48.942;9.256;2023-04-15T12:24:43;15.20;99.90
435;DHT22;204;48.942;9.256;2023-04-15T12:27:12;15.10;99.90
435;DHT22;204;48.942;9.256;2023-04-15T12:29:39;15.20;99.90
435;DHT22;204;48.942;9.256;2023-04-15T12:32:06;15.20;99.90
435;DHT22;204;48.942;9.256;2023-04-15T12:34:34;15.20;99.90
435;DHT22;204;48.942;9.256;2023-04-15T12:37:02;15.20;99.90
435;DHT22;204;48.942;9.256;2023-04-15T12:39:30;15.20;99.90
435;DHT22;204;48.942;9.256;2023-04-15T12:41:57;15.30;99.90
435;DHT22;204;48.942;9.256;2023-04-15T12:44:24;15.30;99.90
435;DHT22;204;48.942;9.256;2023-04-15T12:46:51;15.40;99.90
435;DHT22;204;48.942;9.256;2023-04-15T12:49:18;15.30;99.90
435;DHT22;204;48.942;9.256;2023-04-15T12:51:48;15.30;99.90
435;DHT22;204;48.942;9.256;2023-04-15T12:54:18;15.30;99.90
435;DHT22;204;48.942;9.256;2023-04-15T12:56:45;15.30;99.90
435;DHT22;204;48.942;9.256;2023-04-15T12:59:11;15.30;99.90
435;DHT22;204;48.942;9.256;2023-04-15T13:01:37;15.20;99.90
435;DHT22;204;48.942;9.256;2023-04-15T13:04:03;15.10;99.90
435;DHT22;204;48.942;9.256;2023-04-15T13:06:29;15.00;99.90
435;DHT22;204;48.942;9.256;2023-04-15T13:08:57;14.90;99.90
435;DHT22;204;48.942;9.256;2023-04-15T13:11:23;14.90;99.90
435;DHT22;204;48.942;9.256;2023-04-15T13:13:49;15.00;99.90
435;DHT22;204;48.942;9.256;2023-04-15T13:16:17;14.90;99.90
435;DHT22;204;48.942;9.256;2023-04-15T13:18:42;14.90;99.90
435;DHT22;204;48.942;9.256;2023-04-15T13:21:09;14.90;99.90
435;DHT22;204;48.942;9.256;2023-04-15T13:23:36;14.90;99.90
435;DHT22;204;48.942;9.256;2023-04-15T13:26:01;15.00;99.90
435;DHT22;204;48.942;9.256;2023-04-15T13:28:27;14.90;99.90
435;DHT22;204;48.942;9.256;2023-04-15T13:30:52;14.90;99.90
435;DHT22;204;48.942;9.256;2023-04-15T13:33:18;15.00;99.90
435;DHT22;204;48.942;9.256;2023-04-15T13:35:44;15.00;99.90
435;DHT22;204;48.942;9.256;2023-04-15T13:38:09;15.00;99.90
435;DHT22;204;48.942;9.256;2023-04-15T13:40:35;14.80;99.90
435;DHT22;204;48.942;9.256;2023-04-15T13:43:00;14.60;99.90
435;DHT22;204;48.942;9.256;2023-04-15T13:45:27;14.40;99.90
435;DHT22;204;48.942;9.256;2023-04-15T13:47:54;14.30;99.90
435;DHT22;204;48.942;9.256;2023-04-15T13:50:20;14.20;99.90
435;DHT22;204;48.942;9.256;2023-04-15T13:52:46;14.00;99.90
435;DHT22;204;48.942;9.256;2023-04-15T13:55:11;13.90;99.90
435;DHT22;204;48.942;9.256;2023-04-15T13:57:37;13.90;99.90
435;DHT22;204;48.942;9.256;2023-04-15T14:00:03;13.90;99.90
435;DHT22;204;48.942;9.256;2023-04-15T14:02:29;13.90;99.90
435;DHT22;204;48.942;9.256;2023-04-15T14:04:55;14.00;99.90
435;DHT22;204;48.942;9.256;2023-04-15T14:07:20;14.00;99.90
435;DHT22;204;48.942;9.256;2023-04-15T14:09:46;14.10;99.90
435;DHT22;204;48.942;9.256;2023-04-15T14:12:12;14.10;99.90
435;DHT22;204;48.942;9.256;2023-04-15T14:14:39;14.10;99.90
435;DHT22;204;48.942;9.256;2023-04-15T14:17:04;14.20;99.90
435;DHT22;204;48.942;9.256;2023-04-15T14:19:31;14.30;99.90
435;DHT22;204;48.942;9.256;2023-04-15T14:21:56;14.40;99.90
435;DHT22;204;48.942;9.256;2023-04-15T14:24:22;14.40;99.90
435;DHT22;204;48.942;9.256;2023-04-15T14:26:47;14.40;99.90
435;DHT22;204;48.942;9.256;2023-04-15T14:29:13;14.50;99.90
435;DHT22;204;48.942;9.256;2023-04-15T14:31:39;14.60;99.90
435;DHT22;204;48.942;9.256;2023-04-15T14:34:04;14.70;99.90
435;DHT22;204;48.942;9.256;2023-04-15T14:36:30;14.80;99.90
435;DHT22;204;48.942;9.256;2023-04-15T14:38:56;14.80;99.90
435;DHT22;204;48.942;9.256;2023-04-15T14:41:22;14.60;99.90
435;DHT22;204;48.942;9.256;2023-04-15T14:43:48;14.50;99.90
435;DHT22;204;48.942;9.256;2023-04-15T14:46:14;14.40;99.90
435;DHT22;204;48.942;9.256;2023-04-15T14:48:40;14.30;99.90
435;DHT22;204;48.942;9.256;2023-04-15T14:51:05;14.30;99.90
435;DHT22;204;48.942;9.256;2023-04-15T14:53:31;14.20;99.90
435;DHT22;204;48.942;9.256;2023-04-15T14:55:57;14.00;99.90
435;DHT22;204;48.942;9.256;2023-04-15T14:58:22;13.80;99.90
435;DHT22;204;48.942;9.256;2023-04-15T15:00:48;13.70;99.90
435;DHT22;204;48.942;9.256;2023-04-15T15:03:13;13.50;99.90
435;DHT22;204;48.942;9.256;2023-04-15T15:05:40;13.40;99.90
435;DHT22;204;48.942;9.256;2023-04-15T15:08:07;13.30;99.90
435;DHT22;204;48.942;9.256;2023-04-15T15:10:34;13.20;99.90
435;DHT22;204;48.942;9.256;2023-04-15T15:13:01;13.20;99.90
435;DHT22;204;48.942;9.256;2023-04-15T15:15:27;13.10;99.90
435;DHT22;204;48.942;9.256;2023-04-15T15:17:53;13.10;99.90
435;DHT22;204;48.942;9.256;2023-04-15T15:20:18;13.10;1.00
435;DHT22;204;48.942;9.256;2023-04-15T15:22:44;13.10;1.00
435;DHT22;204;48.942;9.256;2023-04-15T15:25:10;13.10;1.00
435;DHT22;204;48.942;9.256;2023-04-15T15:27:35;13.00;1.00
435;DHT22;204;48.942;9.256;2023-04-15T15:30:02;13.00;1.00
435;DHT22;204;48.942;9.256;2023-04-15T15:32:27;13.00;1.00
435;DHT22;204;48.942;9.256;2023-04-15T15:34:53;13.00;1.00
435;DHT22;204;48.942;9.256;2023-04-15T15:37:19;12.90;1.00
435;DHT22;204;48.942;9.256;2023-04-15T15:39:45;12.90;1.00
435;DHT22;204;48.942;9.256;2023-04-15T15:42:10;12.90;1.00
435;DHT22;204;48.942;9.256;2023-04-15T15:44:36;12.90;1.00
435;DHT22;204;48.942;9.256;2023-04-15T15:47:06;12.90;1.00
435;DHT22;204;48.942;9.256;2023-04-15T15:49:31;12.70;1.00
435;DHT22;204;48.942;9.256;2023-04-15T15:51:57;12.50;1.00
435;DHT22;204;48.942;9.256;2023-04-15T15:54:23;12.20;1.00
435;DHT22;204;48.942;9.256;2023-04-15T15:56:49;11.90;1.00
435;DHT22;204;48.942;9.256;2023-04-15T15:59:14;11.60;1.00
435;DHT22;204;48.942;9.256;2023-04-15T16:01:40;11.40;1.00
435;DHT22;204;48.942;9.256;2023-04-15T16:04:06;11.20;1.00
435;DHT22;204;48.942;9.256;2023-04-15T16:06:31;11.10;1.00
435;DHT22;204;48.942;9.256;2023-04-15T16:08:57;10.90;1.00
435;DHT22;204;48.942;9.256;2023-04-15T16:11:22;10.80;1.00
435;DHT22;204;48.942;9.256;2023-04-15T16:13:48;10.70;1.00
435;DHT22;204;48.942;9.256;2023-04-15T16:16:14;10.60;1.00
435;DHT22;204;48.942;9.256;2023-04-15T16:18:39;10.60;1.00
435;DHT22;204;48.942;9.256;2023-04-15T16:21:05;10.60;1.00
435;DHT22;204;48.942;9.256;2023-04-15T16:23:31;10.60;1.00
435;DHT22;204;48.942;9.256;2023-04-15T16:25:56;10.50;1.00
435;DHT22;204;48.942;9.256;2023-04-15T16:28:22;10.50;1.00
435;DHT22;204;48.942;9.256;2023-04-15T16:30:48;10.40;1.00
435;DHT22;204;48.942;9.256;2023-04-15T16:33:13;10.40;1.00
435;DHT22;204;48.942;9.256;2023-04-15T16:35:39;10.30;1.00
435;DHT22;204;48.942;9.256;2023-04-15T16:38:05;10.40;1.00
435;DHT22;204;48.942;9.256;2023-04-15T16:40:30;10.30;1.00
435;DHT22;204;48.942;9.256;2023-04-15T16:42:57;10.30;1.00
435;DHT22;204;48.942;9.256;2023-04-15T16:45:23;10.30;1.00
435;DHT22;204;48.942;9.256;2023-04-15T16:47:49;10.30;1.00
435;DHT22;204;48.942;9.256;2023-04-15T16:50:14;10.40;1.00
435;DHT22;204;48.942;9.256;2023-04-15T16:52:40;10.40;1.00
435;DHT22;204;48.942;9.256;2023-04-15T16:55:06;10.40;1.00
435;DHT22;204;48.942;9.256;2023-04-15T16:57:31;10.40;1.00
435;DHT22;204;48.942;9.256;2023-04-15T16:59:57;10.40;1.00
435;DHT22;204;48.942;9.256;2023-04-15T17:02:23;10.30;1.00
435;DHT22;204;48.942;9.256;2023-04-15T17:04:48;10.10;1.00
435;DHT22;204;48.942;9.256;2023-04-15T17:07:14;10.10;1.00
435;DHT22;204;48.942;9.256;2023-04-15T17:09:39;10.10;1.00
435;DHT22;204;48.942;9.256;2023-04-15T17:12:05;10.10;1.00